createdAt,value
2018-05-31T00:01:58.853Z,13.20
2018-05-31T00:04:25.643Z,13.67
2018-05-31T00:06:52.417Z,13.83
2018-05-31T00:09:19.174Z,14.87
2018-05-31T00:11:45.925Z,14.80
2018-05-31T00:14:12.700Z,14.33
2018-05-31T00:16:39.462Z,15.37
2018-05-31T00:19:06.215Z,13.97
2018-05-31T00:21:33.019Z,13.50
2018-05-31T00:23:59.788Z,16.77
2018-05-31T00:26:26.561Z,14.30
2018-05-31T00:28:54.005Z,14.43
2018-05-31T00:31:20.756Z,16.83
2018-05-31T00:33:47.539Z,16.40
2018-05-31T00:36:14.344Z,15.37
2018-05-31T00:38:41.095Z,16.37
2018-05-31T00:41:07.873Z,17.40
2018-05-31T00:43:34.657Z,16.30
2018-05-31T00:46:01.454Z,17.47
2018-05-31T00:48:28.225Z,17.33
2018-05-31T00:50:54.995Z,18.20
2018-05-31T00:53:21.808Z,19.00
2018-05-31T00:55:54.428Z,19.70
2018-05-31T00:58:21.198Z,19.73
2018-05-31T01:00:47.956Z,18.97
2018-05-31T01:03:14.718Z,19.40
2018-05-31T01:05:41.480Z,18.23
2018-05-31T01:08:08.234Z,18.27
2018-05-31T01:10:34.997Z,18.97
2018-05-31T01:13:01.782Z,19.60
2018-05-31T01:15:28.530Z,20.03
2018-05-31T01:17:55.268Z,20.00
2018-05-31T01:20:22.071Z,18.53
2018-05-31T01:22:48.837Z,19.47
2018-05-31T01:25:15.605Z,21.03
2018-05-31T01:27:42.395Z,21.93
2018-05-31T01:30:09.202Z,20.53
2018-05-31T01:32:35.972Z,22.40
2018-05-31T01:35:02.729Z,21.67
2018-05-31T01:37:29.539Z,22.47
2018-05-31T01:39:56.292Z,20.40
2018-05-31T01:42:23.069Z,19.60
2018-05-31T01:44:49.800Z,20.73
2018-05-31T01:47:16.547Z,20.87
2018-05-31T01:49:43.348Z,20.73
2018-05-31T01:52:10.122Z,19.83
2018-05-31T01:54:36.880Z,19.97
2018-05-31T01:57:03.642Z,20.37
2018-05-31T01:59:30.422Z,20.10
2018-05-31T02:01:57.179Z,19.97
2018-05-31T02:04:23.946Z,20.00
2018-05-31T02:06:50.728Z,21.27
2018-05-31T02:09:17.503Z,19.87
2018-05-31T02:11:44.253Z,21.30
2018-05-31T02:14:11.012Z,21.00
2018-05-31T02:16:37.776Z,21.53
2018-05-31T02:19:04.540Z,22.40
2018-05-31T02:21:31.442Z,22.97
2018-05-31T02:23:58.331Z,22.50
2018-05-31T02:26:25.177Z,20.07
2018-05-31T02:28:52.114Z,22.03
2018-05-31T02:31:18.949Z,21.27
2018-05-31T02:33:45.849Z,23.93
2018-05-31T02:36:12.763Z,21.20
2018-05-31T02:38:39.679Z,21.40
2018-05-31T02:41:06.550Z,22.17
2018-05-31T02:43:33.445Z,24.63
2018-05-31T02:46:00.428Z,21.97
2018-05-31T02:48:27.223Z,22.80
2018-05-31T02:50:54.123Z,22.33
2018-05-31T02:53:20.973Z,23.00
2018-05-31T02:55:47.828Z,22.50
2018-05-31T02:58:14.752Z,24.13
2018-05-31T03:00:41.638Z,22.10
2018-05-31T03:03:08.624Z,22.20
2018-05-31T03:05:35.508Z,23.47
2018-05-31T03:08:02.303Z,23.93
2018-05-31T03:10:29.050Z,23.57
2018-05-31T03:12:55.801Z,23.77
2018-05-31T03:15:22.602Z,21.90
2018-05-31T03:17:49.355Z,24.50
2018-05-31T03:20:16.202Z,23.53
2018-05-31T03:22:42.966Z,23.57
2018-05-31T03:25:09.725Z,23.80
2018-05-31T03:27:36.561Z,23.80
2018-05-31T03:30:03.400Z,24.13
2018-05-31T03:32:30.154Z,24.27
2018-05-31T03:34:56.916Z,22.63
2018-05-31T03:37:23.695Z,24.03
2018-05-31T03:39:50.487Z,23.30
2018-05-31T03:42:17.257Z,22.33
2018-05-31T03:44:44.045Z,23.73
2018-05-31T03:47:10.775Z,24.70
2018-05-31T03:49:37.565Z,22.47
2018-05-31T03:52:04.307Z,22.87
2018-05-31T03:54:31.095Z,25.13
2018-05-31T03:56:57.857Z,26.73
2018-05-31T03:59:24.659Z,24.60
2018-05-31T04:01:51.392Z,24.23
2018-05-31T04:04:18.143Z,25.73
2018-05-31T04:06:44.936Z,30.17
2018-05-31T04:09:11.715Z,26.90
2018-05-31T04:11:38.470Z,25.50
2018-05-31T04:14:05.210Z,25.50
2018-05-31T04:16:31.992Z,26.27
2018-05-31T04:18:58.735Z,25.03
2018-05-31T04:21:25.487Z,24.70
2018-05-31T04:23:52.262Z,27.70
2018-05-31T04:26:19.013Z,28.70
2018-05-31T04:28:46.651Z,28.90
2018-05-31T04:31:13.418Z,29.33
2018-05-31T04:33:40.269Z,26.73
2018-05-31T04:36:06.969Z,27.90
2018-05-31T04:38:33.755Z,28.93
2018-05-31T04:41:00.515Z,27.47
2018-05-31T04:43:27.291Z,25.87
2018-05-31T04:45:54.059Z,24.20
2018-05-31T04:48:20.817Z,26.70
2018-05-31T04:50:47.584Z,25.57
2018-05-31T04:53:14.334Z,24.60
2018-05-31T04:55:41.124Z,26.37
2018-05-31T04:58:07.951Z,26.20
2018-05-31T05:00:34.692Z,27.13
2018-05-31T05:03:01.480Z,28.23
2018-05-31T05:05:28.216Z,28.03
2018-05-31T05:07:54.990Z,28.03
2018-05-31T05:10:21.744Z,27.23
2018-05-31T05:12:48.511Z,27.63
2018-05-31T05:15:15.405Z,28.23
2018-05-31T05:17:42.194Z,26.83
2018-05-31T05:20:08.963Z,25.53
2018-05-31T05:22:35.721Z,24.07
2018-05-31T05:25:02.495Z,25.50
2018-05-31T05:27:29.250Z,26.67
2018-05-31T05:29:56.012Z,24.10
2018-05-31T05:32:22.788Z,24.17
2018-05-31T05:34:49.560Z,23.80
2018-05-31T05:37:16.351Z,23.93
2018-05-31T05:39:43.114Z,24.20
2018-05-31T05:42:09.894Z,24.53
2018-05-31T05:44:36.663Z,24.07
2018-05-31T05:47:03.441Z,24.40
2018-05-31T05:49:30.230Z,24.00
2018-05-31T05:51:56.997Z,23.60
2018-05-31T05:54:23.757Z,23.30
2018-05-31T05:56:50.524Z,21.53
2018-05-31T05:59:17.269Z,23.33
2018-05-31T06:01:44.052Z,22.80
2018-05-31T06:04:10.830Z,22.10
2018-05-31T06:06:37.565Z,23.97
2018-05-31T06:09:05.268Z,23.00
2018-05-31T06:11:32.017Z,22.70
2018-05-31T06:13:58.782Z,19.10
2018-05-31T06:16:25.583Z,19.40
2018-05-31T06:18:52.329Z,21.63
2018-05-31T06:21:19.088Z,20.97
2018-05-31T06:23:45.858Z,19.60
2018-05-31T06:26:12.692Z,19.20
2018-05-31T06:28:39.400Z,21.33
2018-05-31T06:31:06.149Z,19.40
2018-05-31T06:33:32.975Z,18.53
2018-05-31T06:35:59.720Z,18.67
2018-05-31T06:38:26.447Z,18.53
2018-05-31T06:40:53.269Z,17.67
2018-05-31T06:43:20.008Z,20.33
2018-05-31T06:45:46.808Z,17.80
2018-05-31T06:48:13.551Z,16.07
2018-05-31T06:50:40.280Z,17.23
2018-05-31T06:53:07.553Z,18.33
2018-05-31T06:55:34.336Z,17.57
2018-05-31T06:58:01.084Z,19.47
2018-05-31T07:00:27.846Z,18.87
2018-05-31T07:02:55.099Z,17.47
2018-05-31T07:05:21.993Z,17.80
2018-05-31T07:07:48.754Z,17.60
2018-05-31T07:10:15.508Z,16.97
2018-05-31T07:12:42.242Z,18.10
2018-05-31T07:15:09.014Z,18.30
2018-05-31T07:17:35.749Z,17.60
2018-05-31T07:20:02.502Z,17.80
2018-05-31T07:22:29.235Z,17.77
2018-05-31T07:24:55.991Z,18.57
2018-05-31T07:27:22.725Z,18.00
2018-05-31T07:29:49.451Z,17.97
2018-05-31T07:32:16.194Z,17.40
2018-05-31T07:34:42.937Z,17.30
2018-05-31T07:37:10.365Z,17.40
2018-05-31T07:39:37.098Z,18.30
2018-05-31T07:42:03.884Z,17.30
2018-05-31T07:44:30.621Z,18.67
2018-05-31T07:46:57.339Z,17.00
2018-05-31T07:49:24.087Z,17.03
2018-05-31T07:51:50.841Z,15.20
2018-05-31T07:54:17.634Z,13.60
2018-05-31T07:56:44.367Z,13.17
2018-05-31T07:59:11.240Z,13.00
2018-05-31T08:01:37.993Z,13.13
2018-05-31T08:04:04.727Z,12.93
2018-05-31T08:06:31.500Z,12.90
2018-05-31T08:08:58.236Z,13.40
2018-05-31T08:11:24.986Z,13.20
2018-05-31T08:13:51.749Z,13.20
2018-05-31T08:16:18.477Z,14.27
2018-05-31T08:18:45.258Z,12.70
2018-05-31T08:21:11.989Z,13.80
2018-05-31T08:23:38.751Z,15.70
2018-05-31T08:26:05.492Z,13.30
2018-05-31T08:28:32.248Z,13.60
2018-05-31T08:30:58.999Z,12.83
2018-05-31T08:33:25.740Z,13.60
2018-05-31T08:35:52.508Z,15.83
2018-05-31T08:38:19.251Z,13.07
2018-05-31T08:40:46.028Z,13.13
2018-05-31T08:43:12.809Z,14.67
2018-05-31T08:45:39.545Z,13.20
2018-05-31T08:48:06.285Z,13.47
2018-05-31T08:50:33.059Z,14.40
2018-05-31T08:52:59.793Z,13.07
2018-05-31T08:55:26.536Z,12.83
2018-05-31T08:57:53.277Z,12.80
2018-05-31T09:00:20.028Z,14.33
2018-05-31T09:02:46.759Z,12.57
2018-05-31T09:05:13.620Z,14.70
2018-05-31T09:07:40.344Z,13.80
2018-05-31T09:10:07.068Z,15.00
2018-05-31T09:12:33.844Z,12.00
2018-05-31T09:15:00.581Z,14.00
2018-05-31T09:17:27.315Z,13.17
2018-05-31T09:19:54.101Z,13.47
2018-05-31T09:22:20.869Z,12.50
2018-05-31T09:24:47.761Z,13.67
2018-05-31T09:27:14.503Z,13.90
2018-05-31T09:29:41.246Z,14.27
2018-05-31T09:32:08.000Z,13.60
2018-05-31T09:34:34.760Z,14.87
2018-05-31T09:37:01.506Z,13.37
2018-05-31T09:39:28.256Z,14.70
2018-05-31T09:41:55.022Z,13.60
2018-05-31T09:44:21.831Z,14.53
2018-05-31T09:46:48.559Z,15.27
2018-05-31T09:49:15.296Z,13.37
2018-05-31T09:51:42.040Z,14.00
2018-05-31T09:54:08.848Z,13.03
2018-05-31T09:56:35.596Z,14.87
2018-05-31T09:59:02.346Z,12.70
2018-05-31T10:01:29.100Z,12.70
2018-05-31T10:03:55.844Z,12.90
2018-05-31T10:06:22.602Z,14.50
2018-05-31T10:08:49.352Z,13.80
2018-05-31T10:11:16.081Z,11.73
2018-05-31T10:13:42.853Z,13.50
2018-05-31T10:16:09.600Z,12.83
2018-05-31T10:18:36.329Z,14.90
2018-05-31T10:21:03.109Z,13.13
2018-05-31T10:23:29.921Z,12.90
2018-05-31T10:25:56.666Z,13.80
2018-05-31T10:28:23.429Z,13.70
2018-05-31T10:30:50.633Z,12.40
2018-05-31T10:33:17.366Z,12.73
2018-05-31T10:35:44.163Z,13.83
2018-05-31T10:38:11.220Z,13.00
2018-05-31T10:40:37.975Z,14.13
2018-05-31T10:43:04.721Z,14.17
2018-05-31T10:45:31.476Z,13.93
2018-05-31T10:47:58.221Z,13.20
2018-05-31T10:50:25.029Z,13.80
2018-05-31T10:52:51.777Z,14.77
2018-05-31T10:55:18.573Z,13.70
2018-05-31T10:57:45.304Z,13.40
2018-05-31T11:00:12.089Z,12.57
2018-05-31T11:02:38.856Z,12.20
2018-05-31T11:05:05.612Z,13.10
2018-05-31T11:07:32.363Z,12.47
2018-05-31T11:09:59.150Z,13.53
2018-05-31T11:12:26.429Z,13.47
2018-05-31T11:14:53.218Z,13.47
2018-05-31T11:17:19.977Z,12.83
2018-05-31T11:19:46.728Z,12.43
2018-05-31T11:22:13.494Z,12.57
2018-05-31T11:24:40.251Z,12.70
2018-05-31T11:27:07.016Z,13.10
2018-05-31T11:29:33.776Z,13.30
2018-05-31T11:32:00.550Z,14.70
2018-05-31T11:34:27.320Z,13.33
2018-05-31T11:36:54.056Z,14.17
2018-05-31T11:39:20.844Z,14.63
2018-05-31T11:41:47.576Z,15.17
2018-05-31T11:44:14.310Z,14.33
2018-05-31T11:46:41.072Z,16.13
2018-05-31T11:49:07.813Z,13.67
2018-05-31T11:51:34.561Z,14.67
2018-05-31T11:54:01.342Z,14.73
2018-05-31T11:56:28.165Z,14.30
2018-05-31T11:58:54.921Z,15.80
2018-05-31T12:01:21.654Z,17.63
2018-05-31T12:03:48.454Z,14.53
2018-05-31T12:06:15.164Z,14.80
2018-05-31T12:08:41.940Z,15.17
2018-05-31T12:11:08.689Z,14.20
2018-05-31T12:13:35.428Z,14.80
2018-05-31T12:16:02.196Z,13.40
2018-05-31T12:18:28.928Z,12.83
2018-05-31T12:20:55.677Z,12.57
2018-05-31T12:23:22.407Z,13.17
2018-05-31T12:25:49.162Z,13.00
2018-05-31T12:28:15.903Z,14.60
2018-05-31T12:30:42.679Z,12.07
2018-05-31T12:33:09.425Z,12.40
2018-05-31T12:35:36.186Z,12.80
2018-05-31T12:38:02.969Z,13.10
2018-05-31T12:40:29.768Z,13.87
2018-05-31T12:42:56.583Z,13.40
2018-05-31T12:45:23.337Z,13.57
2018-05-31T12:47:50.093Z,13.50
2018-05-31T12:50:16.860Z,12.93
2018-05-31T12:52:43.606Z,15.30
2018-05-31T12:55:10.360Z,13.40
2018-05-31T12:57:37.139Z,15.80
2018-05-31T13:00:03.886Z,14.97
2018-05-31T13:02:30.628Z,14.90
2018-05-31T13:04:57.386Z,16.37
2018-05-31T13:07:24.137Z,15.87
2018-05-31T13:09:50.923Z,15.20
2018-05-31T13:12:17.657Z,15.47
2018-05-31T13:14:44.438Z,17.20
2018-05-31T13:17:11.171Z,18.23
2018-05-31T13:19:37.948Z,17.73
2018-05-31T13:22:04.727Z,19.53
2018-05-31T13:24:32.196Z,18.73
2018-05-31T13:26:58.970Z,18.57
2018-05-31T13:29:25.706Z,18.37
2018-05-31T13:31:52.527Z,19.03
2018-05-31T13:34:19.289Z,19.73
2018-05-31T13:36:46.020Z,19.73
2018-05-31T13:39:12.790Z,21.70
2018-05-31T13:41:39.533Z,20.17
2018-05-31T13:44:06.285Z,19.90
2018-05-31T13:46:33.078Z,22.63
2018-05-31T13:48:59.848Z,22.50
2018-05-31T13:51:26.596Z,21.73
2018-05-31T13:53:53.344Z,21.40
2018-05-31T13:56:20.132Z,21.27
2018-05-31T13:58:46.870Z,21.53
2018-05-31T14:01:13.621Z,21.87
2018-05-31T14:03:40.372Z,24.00
2018-05-31T14:06:07.129Z,24.63
2018-05-31T14:08:34.009Z,22.97
2018-05-31T14:11:00.880Z,23.80
2018-05-31T14:13:27.616Z,22.67
2018-05-31T14:15:54.345Z,23.87
2018-05-31T14:18:21.088Z,24.33
2018-05-31T14:20:47.822Z,26.37
2018-05-31T14:23:14.576Z,25.30
2018-05-31T14:25:41.332Z,26.90
2018-05-31T14:28:08.069Z,25.10
2018-05-31T14:30:35.412Z,27.53
2018-05-31T14:33:02.723Z,26.97
2018-05-31T14:35:29.495Z,26.67
2018-05-31T14:37:56.239Z,26.50
2018-05-31T14:40:23.014Z,26.60
2018-05-31T14:42:49.793Z,26.17
2018-05-31T14:45:16.580Z,25.10
2018-05-31T14:47:43.312Z,28.17
2018-05-31T14:50:10.096Z,28.03
2018-05-31T14:52:37.304Z,26.87
2018-05-31T14:55:04.309Z,27.70
2018-05-31T14:57:31.209Z,25.97
2018-05-31T14:59:58.074Z,27.07
2018-05-31T15:02:24.879Z,25.03
2018-05-31T15:04:51.685Z,23.27
2018-05-31T15:07:18.494Z,23.63
2018-05-31T15:09:45.310Z,23.23
2018-05-31T15:12:12.121Z,23.80
2018-05-31T15:14:38.908Z,22.53
2018-05-31T15:17:05.745Z,20.77
2018-05-31T15:19:32.549Z,20.97
2018-05-31T15:21:59.341Z,19.13
2018-05-31T15:24:26.606Z,18.20
2018-05-31T15:26:53.456Z,18.13
2018-05-31T15:29:20.406Z,18.17
2018-05-31T15:31:47.175Z,17.00
2018-05-31T15:34:13.921Z,16.00
2018-05-31T15:36:40.689Z,17.13
2018-05-31T15:39:07.419Z,15.20
2018-05-31T15:41:34.168Z,15.23
2018-05-31T15:44:01.303Z,15.10
2018-05-31T15:46:28.080Z,14.53
2018-05-31T15:48:54.840Z,14.87
2018-05-31T15:51:21.601Z,14.27
2018-05-31T15:53:48.377Z,15.00
2018-05-31T15:56:15.111Z,13.60
2018-05-31T15:58:41.865Z,14.10
2018-05-31T16:01:08.666Z,13.67
2018-05-31T16:03:35.399Z,13.23
2018-05-31T16:06:02.134Z,11.37
2018-05-31T16:08:28.916Z,12.53
2018-05-31T16:10:55.653Z,12.80
2018-05-31T16:13:23.670Z,13.00
2018-05-31T16:15:50.424Z,13.13
2018-05-31T16:18:17.171Z,13.20
2018-05-31T16:20:43.904Z,12.70
2018-05-31T16:23:10.770Z,13.83
2018-05-31T16:25:37.524Z,12.70
2018-05-31T16:28:04.294Z,13.70
2018-05-31T16:30:31.047Z,14.00
2018-05-31T16:32:57.776Z,13.37
2018-05-31T16:35:24.576Z,14.30
2018-05-31T16:37:51.311Z,14.70
2018-05-31T16:40:18.081Z,15.90
2018-05-31T16:42:44.908Z,14.27
2018-05-31T16:45:11.637Z,16.07
2018-05-31T16:47:38.390Z,14.07
2018-05-31T16:50:05.174Z,14.23
2018-05-31T16:52:31.911Z,14.27
2018-05-31T16:54:58.704Z,14.03
2018-05-31T16:57:25.441Z,14.80
2018-05-31T16:59:52.203Z,14.90
2018-05-31T17:02:18.959Z,13.80
2018-05-31T17:04:45.716Z,13.33
2018-05-31T17:07:12.513Z,14.20
2018-05-31T17:09:39.269Z,14.07
2018-05-31T17:12:06.025Z,13.90
2018-05-31T17:14:32.814Z,15.60
2018-05-31T17:16:59.641Z,16.10
2018-05-31T17:19:26.408Z,16.07
2018-05-31T17:21:53.143Z,15.13
2018-05-31T17:24:19.893Z,17.87
2018-05-31T17:26:46.666Z,17.70
2018-05-31T17:29:13.393Z,19.00
2018-05-31T17:31:40.189Z,18.27
2018-05-31T17:34:06.930Z,18.57
2018-05-31T17:36:33.684Z,18.73
2018-05-31T17:39:00.425Z,18.53
2018-05-31T17:41:27.188Z,17.97
2018-05-31T17:43:54.001Z,19.17
2018-05-31T17:46:20.757Z,18.87
2018-05-31T17:48:47.509Z,19.67
2018-05-31T17:51:14.263Z,20.70
2018-05-31T17:53:41.023Z,20.03
2018-05-31T17:56:07.782Z,21.87
2018-05-31T17:58:34.706Z,20.97
2018-05-31T18:01:01.499Z,20.40
2018-05-31T18:03:28.270Z,22.30
2018-05-31T18:05:55.015Z,21.53
2018-05-31T18:08:21.775Z,22.40
2018-05-31T18:10:48.524Z,22.53
2018-05-31T18:13:15.275Z,21.77
2018-05-31T18:15:42.088Z,21.73
2018-05-31T18:18:08.908Z,22.53
2018-05-31T18:20:35.637Z,22.30
2018-05-31T18:23:02.401Z,23.10
2018-05-31T18:25:29.292Z,22.70
2018-05-31T18:27:56.055Z,22.30
2018-05-31T18:30:22.788Z,22.50
2018-05-31T18:32:49.547Z,23.73
2018-05-31T18:35:16.303Z,22.83
2018-05-31T18:37:43.056Z,23.57
2018-05-31T18:40:09.820Z,22.60
2018-05-31T18:42:36.555Z,22.77
2018-05-31T18:45:03.344Z,30.00
2018-05-31T18:47:30.097Z,31.63
2018-05-31T18:49:56.856Z,28.53
2018-05-31T18:52:23.616Z,26.77
2018-05-31T18:54:50.380Z,25.53
2018-05-31T18:57:17.129Z,26.77
2018-05-31T18:59:43.868Z,26.23
2018-05-31T19:02:10.627Z,28.03
2018-05-31T19:04:37.386Z,27.20
2018-05-31T19:07:04.124Z,27.13
2018-05-31T19:09:36.755Z,28.20
2018-05-31T19:12:03.515Z,27.93
2018-05-31T19:14:30.258Z,28.47
2018-05-31T19:16:57.024Z,29.17
2018-05-31T19:19:29.639Z,27.60
2018-05-31T19:21:56.402Z,28.80
2018-05-31T19:24:28.830Z,30.30
2018-05-31T19:26:55.571Z,28.87
2018-05-31T19:29:22.369Z,31.23
2018-05-31T19:31:49.133Z,31.00
2018-05-31T19:34:15.860Z,31.03
2018-05-31T19:36:48.435Z,30.10
2018-05-31T19:39:15.171Z,33.53
2018-05-31T19:41:41.941Z,31.97
2018-05-31T19:44:14.429Z,33.43
2018-05-31T19:46:41.202Z,32.23
2018-05-31T19:49:07.947Z,31.60
2018-05-31T19:51:40.446Z,31.17
2018-05-31T19:54:07.226Z,32.33
2018-05-31T19:56:33.966Z,30.13
2018-05-31T19:59:06.454Z,27.03
2018-05-31T20:01:38.888Z,29.20
2018-05-31T20:04:05.664Z,28.57
2018-05-31T20:06:32.408Z,27.07
2018-05-31T20:08:59.154Z,30.33
2018-05-31T20:11:25.918Z,29.77
2018-05-31T20:13:52.672Z,28.13
2018-05-31T20:16:19.434Z,29.73
2018-05-31T20:18:46.236Z,29.40
2018-05-31T20:21:13.147Z,31.07
2018-05-31T20:23:39.986Z,29.03
2018-05-31T20:26:06.714Z,30.43
2018-05-31T20:28:33.578Z,29.57
2018-05-31T20:31:00.368Z,31.10
2018-05-31T20:33:27.103Z,30.67
2018-05-31T20:35:53.840Z,28.60
2018-05-31T20:38:20.697Z,29.93
2018-05-31T20:40:47.486Z,30.70
2018-05-31T20:43:14.229Z,29.27
2018-05-31T20:45:40.956Z,29.37
2018-05-31T20:48:07.708Z,27.63
2018-05-31T20:50:34.451Z,28.10
2018-05-31T20:53:01.235Z,28.47
2018-05-31T20:55:27.983Z,29.47
2018-05-31T20:57:55.569Z,28.30
2018-05-31T21:00:22.349Z,28.93
2018-05-31T21:02:49.128Z,24.97
2018-05-31T21:05:16.408Z,29.80
2018-05-31T21:07:43.192Z,29.13
2018-05-31T21:10:09.936Z,26.50
2018-05-31T21:12:36.737Z,29.10
2018-05-31T21:15:03.612Z,28.50
2018-05-31T21:17:30.398Z,26.67
2018-05-31T21:19:57.161Z,27.60
2018-05-31T21:22:23.927Z,27.50
2018-05-31T21:24:50.668Z,27.33
2018-05-31T21:27:17.430Z,28.93
2018-05-31T21:29:44.390Z,30.07
2018-05-31T21:32:11.145Z,27.90
2018-05-31T21:34:37.925Z,28.57
2018-05-31T21:37:04.678Z,28.03
2018-05-31T21:39:31.440Z,30.40
2018-05-31T21:41:58.222Z,30.53
2018-05-31T21:44:25.052Z,28.77
2018-05-31T21:46:51.812Z,29.43
2018-05-31T21:49:18.609Z,25.40
2018-05-31T21:51:45.356Z,32.03
2018-05-31T21:54:12.158Z,31.03
2018-05-31T21:56:38.885Z,28.70
2018-05-31T21:59:05.635Z,28.83
2018-05-31T22:01:32.579Z,31.10
2018-05-31T22:03:59.364Z,31.03
2018-05-31T22:06:26.144Z,33.67
2018-05-31T22:08:52.871Z,29.43
2018-05-31T22:11:19.654Z,33.60
2018-05-31T22:13:46.388Z,30.63
2018-05-31T22:16:13.176Z,34.70
2018-05-31T22:18:39.925Z,33.33
2018-05-31T22:21:06.718Z,34.77
2018-05-31T22:23:33.508Z,34.60
2018-05-31T22:26:00.328Z,35.60
2018-05-31T22:28:27.091Z,35.77
2018-05-31T22:30:53.858Z,34.87
2018-05-31T22:33:20.656Z,31.47
2018-05-31T22:35:47.401Z,34.40
2018-05-31T22:38:14.161Z,32.73
2018-05-31T22:40:40.917Z,31.87
2018-05-31T22:43:07.729Z,28.93
2018-05-31T22:45:34.660Z,31.67
2018-05-31T22:48:01.404Z,32.37
2018-05-31T22:50:28.415Z,31.90
2018-05-31T22:52:55.135Z,28.23
2018-05-31T22:55:21.926Z,33.47
2018-05-31T22:57:48.667Z,29.73
2018-05-31T23:00:15.816Z,29.63
2018-05-31T23:02:42.647Z,31.23
2018-05-31T23:05:09.429Z,28.00
2018-05-31T23:07:36.169Z,26.80
2018-05-31T23:10:02.912Z,27.50
2018-05-31T23:12:29.675Z,30.90
2018-05-31T23:14:56.409Z,29.90
2018-05-31T23:17:23.181Z,30.23
2018-05-31T23:19:49.965Z,29.47
2018-05-31T23:22:16.716Z,29.03
2018-05-31T23:24:43.495Z,28.87
2018-05-31T23:27:10.254Z,30.43
2018-05-31T23:29:37.157Z,30.63
2018-05-31T23:32:03.911Z,32.13
2018-05-31T23:34:30.650Z,32.30
2018-05-31T23:36:57.428Z,30.30
2018-05-31T23:39:24.243Z,32.57
2018-05-31T23:41:51.024Z,31.00
2018-05-31T23:44:17.786Z,33.03
2018-05-31T23:46:44.520Z,31.87
2018-05-31T23:49:11.297Z,33.40
2018-05-31T23:51:38.041Z,29.77
2018-05-31T23:54:04.838Z,30.70
2018-05-31T23:56:31.576Z,33.93
2018-05-31T23:58:58.349Z,33.67
